createdAt,value
2022-10-06T00:00:43.843Z,2.38
2022-10-06T00:03:15.636Z,1.83
2022-10-06T00:05:45.025Z,1.90
2022-10-06T00:08:11.576Z,1.52
2022-10-06T00:10:38.340Z,1.48
2022-10-06T00:13:04.916Z,1.98
2022-10-06T00:15:32.464Z,1.73
2022-10-06T00:18:01.148Z,1.50
2022-10-06T00:20:28.920Z,1.35
2022-10-06T00:23:00.494Z,1.77
2022-10-06T00:25:28.139Z,2.17
2022-10-06T00:27:55.171Z,2.10
2022-10-06T00:30:26.199Z,1.83
2022-10-06T00:32:57.703Z,2.08
2022-10-06T00:35:25.941Z,2.22
2022-10-06T00:37:52.353Z,1.92
2022-10-06T00:40:19.326Z,2.17
2022-10-06T00:42:59.683Z,2.00
2022-10-06T00:45:37.229Z,1.23
2022-10-06T00:48:11.128Z,1.98
2022-10-06T00:50:38.749Z,2.63
2022-10-06T00:53:06.052Z,1.83
2022-10-06T00:55:32.541Z,1.90
2022-10-06T00:58:00.054Z,2.10
2022-10-06T01:00:27.130Z,2.13
2022-10-06T01:03:06.731Z,2.00
2022-10-06T01:05:39.051Z,2.22
2022-10-06T01:08:08.041Z,1.88
2022-10-06T01:10:34.708Z,2.10
2022-10-06T01:13:02.129Z,1.75
2022-10-06T01:15:28.953Z,2.10
2022-10-06T01:18:02.496Z,2.17
2022-10-06T01:20:31.751Z,2.50
2022-10-06T01:23:08.276Z,1.50
2022-10-06T01:25:37.176Z,2.28
2022-10-06T01:28:06.079Z,3.08
2022-10-06T01:30:39.067Z,5.00
2022-10-06T01:33:05.652Z,3.55
2022-10-06T01:35:32.078Z,3.22
2022-10-06T01:37:59.632Z,3.08
2022-10-06T01:40:29.303Z,1.83
2022-10-06T01:42:56.763Z,2.47
2022-10-06T01:45:23.178Z,2.13
2022-10-06T01:47:49.802Z,2.97
2022-10-06T01:50:18.457Z,1.92
2022-10-06T01:52:44.930Z,2.08
2022-10-06T01:55:14.540Z,2.60
2022-10-06T01:57:41.681Z,2.40
2022-10-06T02:00:11.626Z,2.53
2022-10-06T02:02:38.105Z,3.38
2022-10-06T02:05:07.400Z,2.00
2022-10-06T02:07:37.543Z,2.50
2022-10-06T02:10:05.777Z,3.15
2022-10-06T02:12:32.413Z,2.00
2022-10-06T02:14:59.241Z,2.83
2022-10-06T02:17:29.140Z,2.03
2022-10-06T02:19:55.604Z,2.85
2022-10-06T02:22:22.251Z,2.15
2022-10-06T02:24:50.846Z,2.28
2022-10-06T02:27:19.788Z,2.22
2022-10-06T02:29:51.249Z,2.20
2022-10-06T02:32:17.596Z,2.55
2022-10-06T02:34:43.973Z,2.08
2022-10-06T02:37:12.614Z,2.13
2022-10-06T02:39:39.057Z,1.70
2022-10-06T02:42:05.563Z,2.08
2022-10-06T02:44:32.012Z,2.53
2022-10-06T02:46:59.461Z,4.90
2022-10-06T02:49:28.436Z,8.32
2022-10-06T02:51:54.914Z,6.82
2022-10-06T02:54:22.413Z,5.75
2022-10-06T02:56:50.113Z,3.63
2022-10-06T02:59:16.512Z,3.22
2022-10-06T03:01:45.412Z,2.88
2022-10-06T03:04:12.012Z,2.65
2022-10-06T03:06:38.534Z,2.85
2022-10-06T03:09:07.401Z,12.15
2022-10-06T03:11:40.599Z,11.45
2022-10-06T03:14:07.534Z,9.68
2022-10-06T03:16:39.410Z,5.10
2022-10-06T03:19:06.757Z,4.50
2022-10-06T03:21:36.157Z,4.63
2022-10-06T03:24:02.939Z,3.63
2022-10-06T03:26:32.598Z,3.95
2022-10-06T03:29:00.156Z,3.97
2022-10-06T03:31:27.619Z,4.47
2022-10-06T03:33:56.749Z,4.00
2022-10-06T03:36:25.695Z,4.32
2022-10-06T03:38:52.288Z,7.03
2022-10-06T03:41:21.330Z,4.18
2022-10-06T03:43:49.202Z,4.05
2022-10-06T03:46:21.055Z,3.90
2022-10-06T03:48:49.449Z,2.95
2022-10-06T03:51:22.498Z,3.28
2022-10-06T03:53:51.426Z,4.05
2022-10-06T03:56:19.699Z,4.20
2022-10-06T03:58:54.972Z,3.65
2022-10-06T04:01:26.987Z,3.78
2022-10-06T04:06:27.391Z,3.72
2022-10-06T04:08:55.017Z,3.65
2022-10-06T04:11:33.447Z,2.90
2022-10-06T04:14:05.162Z,3.28
2022-10-06T04:16:35.419Z,3.33
2022-10-06T04:19:04.645Z,3.28
2022-10-06T04:21:32.757Z,2.92
2022-10-06T04:24:00.232Z,2.90
2022-10-06T04:26:30.639Z,2.97
2022-10-06T04:28:57.133Z,3.10
2022-10-06T04:31:28.410Z,3.15
2022-10-06T04:33:57.395Z,3.17
2022-10-06T04:36:26.621Z,2.55
2022-10-06T04:38:58.547Z,3.15
2022-10-06T04:41:32.185Z,2.25
2022-10-06T04:43:59.429Z,2.38
2022-10-06T04:46:44.196Z,1.90
2022-10-06T04:49:17.891Z,2.45
2022-10-06T04:51:46.385Z,1.88
2022-10-06T04:54:12.822Z,1.67
2022-10-06T04:56:39.253Z,1.80
2022-10-06T04:59:05.630Z,1.90
2022-10-06T05:01:34.099Z,1.90
2022-10-06T05:04:02.061Z,1.80
2022-10-06T05:06:31.701Z,1.95
2022-10-06T05:09:00.625Z,1.85
2022-10-06T05:11:27.546Z,1.48
2022-10-06T05:13:56.111Z,1.80
2022-10-06T05:16:24.613Z,2.15
2022-10-06T05:18:53.564Z,1.95
2022-10-06T05:21:22.536Z,1.45
2022-10-06T05:23:49.192Z,1.55
2022-10-06T05:26:21.834Z,1.73
2022-10-06T05:28:48.588Z,1.67
2022-10-06T05:31:31.760Z,1.50
2022-10-06T05:33:59.254Z,2.33
2022-10-06T05:36:28.754Z,1.40
2022-10-06T05:38:56.162Z,1.50
2022-10-06T05:41:24.384Z,1.25
2022-10-06T05:43:51.693Z,1.20
2022-10-06T05:46:21.006Z,1.48
2022-10-06T05:48:49.124Z,2.33
2022-10-06T05:51:19.945Z,6.70
2022-10-06T05:53:47.512Z,2.38
2022-10-06T05:56:24.362Z,2.83
2022-10-06T05:58:53.343Z,2.63
2022-10-06T06:01:24.190Z,2.70
2022-10-06T06:03:55.358Z,1.70
2022-10-06T06:06:31.966Z,1.20
2022-10-06T06:09:02.440Z,1.50
2022-10-06T06:11:31.585Z,1.63
2022-10-06T06:14:02.742Z,1.80
2022-10-06T06:16:32.074Z,1.50
2022-10-06T06:18:59.999Z,1.55
2022-10-06T06:21:27.462Z,1.27
2022-10-06T06:23:54.536Z,1.10
2022-10-06T06:26:26.317Z,1.35
2022-10-06T06:28:54.401Z,1.73
2022-10-06T06:31:26.468Z,1.67
2022-10-06T06:36:36.936Z,1.45
2022-10-06T06:39:05.799Z,1.08
2022-10-06T06:41:35.236Z,0.90
2022-10-06T06:44:04.779Z,1.55
2022-10-06T06:46:32.200Z,1.27
2022-10-06T06:49:04.092Z,1.10
2022-10-06T06:51:34.570Z,1.02
2022-10-06T06:54:03.983Z,1.33
2022-10-06T06:56:40.284Z,1.27
2022-10-06T06:59:10.784Z,0.90
2022-10-06T07:01:38.934Z,0.88
2022-10-06T07:04:06.247Z,1.20
2022-10-06T07:06:35.531Z,0.88
2022-10-06T07:09:01.905Z,1.35
2022-10-06T07:11:36.128Z,0.95
2022-10-06T07:14:05.829Z,1.13
2022-10-06T07:16:51.217Z,1.23
2022-10-06T07:19:37.639Z,2.05
2022-10-06T07:22:25.561Z,1.58
2022-10-06T07:25:07.810Z,1.48
2022-10-06T07:27:36.780Z,1.25
2022-10-06T07:30:04.967Z,1.55
2022-10-06T07:32:31.364Z,1.75
2022-10-06T07:34:58.770Z,0.93
2022-10-06T07:37:26.889Z,1.35
2022-10-06T07:39:53.385Z,0.77
2022-10-06T07:42:20.487Z,1.08
2022-10-06T07:45:05.910Z,1.10
2022-10-06T07:47:33.317Z,0.65
2022-10-06T07:49:59.922Z,1.63
2022-10-06T07:52:28.837Z,4.30
2022-10-06T07:54:56.358Z,3.35
2022-10-06T07:57:22.877Z,2.08
2022-10-06T07:59:51.891Z,1.55
2022-10-06T08:02:19.812Z,3.85
2022-10-06T08:04:46.258Z,1.33
2022-10-06T08:07:12.751Z,1.15
2022-10-06T08:09:39.135Z,1.42
2022-10-06T08:12:27.992Z,1.30
2022-10-06T08:14:54.652Z,1.45
2022-10-06T08:17:21.182Z,1.00
2022-10-06T08:19:47.964Z,0.80
2022-10-06T08:22:15.937Z,0.50
2022-10-06T08:25:08.404Z,0.82
2022-10-06T08:27:29.278Z,0.93
2022-10-06T08:29:58.525Z,1.20
2022-10-06T08:32:25.338Z,0.95
2022-10-06T08:34:57.437Z,1.23
2022-10-06T08:37:26.704Z,0.70
2022-10-06T08:39:54.495Z,1.00
2022-10-06T08:42:38.972Z,0.80
2022-10-06T08:45:16.979Z,0.40
2022-10-06T08:47:53.091Z,1.15
2022-10-06T08:50:22.154Z,0.68
2022-10-06T08:53:06.032Z,1.42
2022-10-06T08:55:42.053Z,0.75
2022-10-06T08:58:39.212Z,1.10
2022-10-06T09:01:18.751Z,0.60
2022-10-06T09:03:48.841Z,1.30
2022-10-06T09:07:09.203Z,0.60
2022-10-06T09:09:51.814Z,0.85
2022-10-06T09:12:32.417Z,0.70
2022-10-06T09:15:20.750Z,0.60
2022-10-06T09:18:01.944Z,1.33
2022-10-06T09:20:51.262Z,1.13
2022-10-06T09:23:39.518Z,1.55
2022-10-06T09:26:16.428Z,1.30
2022-10-06T09:28:46.420Z,1.17
2022-10-06T09:31:29.705Z,0.75
2022-10-06T09:34:04.389Z,1.02
2022-10-06T09:36:32.234Z,1.02
2022-10-06T09:39:00.018Z,1.15
2022-10-06T09:41:33.963Z,1.25
2022-10-06T09:44:05.162Z,1.05
2022-10-06T09:46:41.592Z,0.85
2022-10-06T09:49:17.659Z,1.00
2022-10-06T09:52:02.174Z,1.17
2022-10-06T09:54:29.753Z,1.30
2022-10-06T09:56:59.339Z,1.08
2022-10-06T09:59:41.719Z,1.10
2022-10-06T10:02:40.934Z,1.35
2022-10-06T10:05:21.411Z,1.40
2022-10-06T10:08:04.509Z,1.30
2022-10-06T10:10:30.909Z,1.38
2022-10-06T10:12:59.348Z,1.30
2022-10-06T10:15:35.610Z,1.05
2022-10-06T10:18:12.312Z,1.20
2022-10-06T10:20:52.386Z,1.50
2022-10-06T10:23:27.318Z,0.73
2022-10-06T10:26:01.795Z,0.80
2022-10-06T10:28:28.234Z,0.90
2022-10-06T10:31:22.236Z,1.00
2022-10-06T10:34:24.070Z,0.90
2022-10-06T10:37:00.836Z,1.58
2022-10-06T10:39:33.387Z,1.67
2022-10-06T10:42:04.830Z,1.08
2022-10-06T10:44:37.433Z,0.82
2022-10-06T10:47:27.959Z,1.67
2022-10-06T10:50:02.601Z,1.90
2022-10-06T10:52:34.469Z,1.23
2022-10-06T10:57:48.409Z,0.77
2022-10-06T11:00:25.830Z,0.95
2022-10-06T11:02:54.979Z,0.88
2022-10-06T11:05:46.297Z,0.52
2022-10-06T11:08:26.935Z,1.20
2022-10-06T11:11:08.329Z,2.03
2022-10-06T11:13:48.340Z,2.13
2022-10-06T11:16:31.815Z,1.13
2022-10-06T11:19:15.628Z,0.82
2022-10-06T11:21:48.034Z,1.70
2022-10-06T11:24:26.466Z,1.05
2022-10-06T11:26:58.868Z,0.95
2022-10-06T11:29:37.446Z,0.77
2022-10-06T11:32:39.840Z,1.33
2022-10-06T11:35:20.068Z,0.85
2022-10-06T11:37:53.660Z,1.30
2022-10-06T11:40:55.004Z,0.98
2022-10-06T11:44:00.107Z,1.07
2022-10-06T11:46:32.283Z,0.80
2022-10-06T11:49:30.706Z,0.73
2022-10-06T11:52:17.033Z,1.05
2022-10-06T11:54:43.418Z,0.88
2022-10-06T11:57:30.890Z,0.40
2022-10-06T12:00:03.354Z,0.47
2022-10-06T12:02:32.553Z,0.70
2022-10-06T12:08:11.741Z,1.73
2022-10-06T12:10:49.003Z,1.85
2022-10-06T12:14:26.591Z,1.15
2022-10-06T12:19:24.432Z,0.57
2022-10-06T12:22:13.412Z,1.00
2022-10-06T12:25:18.577Z,0.63
2022-10-06T12:28:06.162Z,0.85
2022-10-06T12:30:51.391Z,1.63
2022-10-06T12:33:34.371Z,0.70
2022-10-06T12:36:06.881Z,0.80
2022-10-06T12:38:41.362Z,1.02
2022-10-06T12:41:14.280Z,0.93
2022-10-06T12:43:55.102Z,0.73
2022-10-06T12:46:28.753Z,0.77
2022-10-06T12:49:31.875Z,0.70
2022-10-06T12:52:08.014Z,0.73
2022-10-06T12:54:59.846Z,0.70
2022-10-06T12:57:30.718Z,1.30
2022-10-06T12:59:57.798Z,0.80
2022-10-06T13:02:27.709Z,0.95
2022-10-06T13:05:01.428Z,1.20
2022-10-06T13:07:30.928Z,0.90
2022-10-06T13:10:20.110Z,0.60
2022-10-06T13:12:50.155Z,0.77
2022-10-06T13:15:24.961Z,0.45
2022-10-06T13:17:55.199Z,1.20
2022-10-06T13:20:33.749Z,0.65
2022-10-06T13:23:03.042Z,0.80
2022-10-06T13:25:42.023Z,0.75
2022-10-06T13:28:42.336Z,1.00
2022-10-06T13:31:14.687Z,0.68
2022-10-06T13:33:46.027Z,1.35
2022-10-06T13:36:13.488Z,0.60
2022-10-06T13:38:41.712Z,0.68
2022-10-06T13:41:11.304Z,0.68
2022-10-06T13:43:41.660Z,0.55
2022-10-06T13:46:16.302Z,0.80
2022-10-06T13:48:47.645Z,0.80
2022-10-06T13:51:30.104Z,1.00
2022-10-06T13:54:03.705Z,0.93
2022-10-06T13:56:38.410Z,0.65
2022-10-06T13:59:38.260Z,0.70
2022-10-06T14:02:20.073Z,0.75
2022-10-06T14:05:29.326Z,0.85
2022-10-06T14:08:01.022Z,0.93
2022-10-06T14:10:31.273Z,0.80
2022-10-06T14:13:01.299Z,0.70
2022-10-06T14:15:57.407Z,0.75
2022-10-06T14:18:29.127Z,1.05
2022-10-06T14:20:59.363Z,0.90
2022-10-06T14:23:48.707Z,0.43
2022-10-06T14:26:16.884Z,0.80
2022-10-06T14:28:49.188Z,0.80
2022-10-06T14:31:15.991Z,1.00
2022-10-06T14:33:42.776Z,0.55
2022-10-06T14:36:16.257Z,1.40
2022-10-06T14:38:42.768Z,0.55
2022-10-06T14:41:09.332Z,0.90
2022-10-06T14:43:35.718Z,0.73
2022-10-06T14:46:05.468Z,0.77
2022-10-06T14:48:32.745Z,0.80
2022-10-06T14:51:03.251Z,0.60
2022-10-06T14:53:29.937Z,0.90
2022-10-06T14:56:04.361Z,0.68
2022-10-06T14:58:33.121Z,1.20
2022-10-06T15:01:12.410Z,4.05
2022-10-06T15:03:38.884Z,0.90
2022-10-06T15:06:26.417Z,0.82
2022-10-06T15:08:55.152Z,0.88
2022-10-06T15:11:23.784Z,0.50
2022-10-06T15:13:50.174Z,0.77
2022-10-06T15:16:20.716Z,1.23
2022-10-06T15:18:47.134Z,0.85
2022-10-06T15:21:13.568Z,1.15
2022-10-06T15:23:40.045Z,0.63
2022-10-06T15:26:25.413Z,0.68
2022-10-06T15:29:01.231Z,0.77
2022-10-06T15:31:36.483Z,0.52
2022-10-06T15:34:07.510Z,0.70
2022-10-06T15:36:36.299Z,0.60
2022-10-06T15:39:10.583Z,0.73
2022-10-06T15:41:38.683Z,0.50
2022-10-06T15:44:05.840Z,1.05
2022-10-06T15:46:40.471Z,0.68
2022-10-06T15:49:13.970Z,0.70
2022-10-06T15:51:51.901Z,0.60
2022-10-06T15:54:38.272Z,0.80
2022-10-06T15:57:10.079Z,0.52
2022-10-06T15:59:37.178Z,0.68
2022-10-06T16:02:07.496Z,0.80
2022-10-06T16:04:39.706Z,0.80
2022-10-06T16:09:39.294Z,1.00
2022-10-06T16:12:11.134Z,0.82
2022-10-06T16:14:39.942Z,0.70
2022-10-06T16:17:07.423Z,0.77
2022-10-06T16:19:37.055Z,0.88
2022-10-06T16:22:05.059Z,4.90
2022-10-06T16:24:31.791Z,6.18
2022-10-06T16:26:59.923Z,6.18
2022-10-06T16:29:30.552Z,6.18
2022-10-06T16:31:57.809Z,3.92
2022-10-06T16:34:25.361Z,3.63
2022-10-06T16:36:51.724Z,1.67
2022-10-06T16:39:20.802Z,1.58
2022-10-06T16:41:48.022Z,1.65
2022-10-06T16:44:14.627Z,3.65
2022-10-06T16:46:41.245Z,4.55
2022-10-06T16:49:09.178Z,3.78
2022-10-06T16:51:40.151Z,3.22
2022-10-06T16:54:09.021Z,4.25
2022-10-06T16:56:41.251Z,2.08
2022-10-06T16:59:13.536Z,1.63
2022-10-06T17:01:42.811Z,1.27
2022-10-06T17:04:12.117Z,1.25
2022-10-06T17:06:43.966Z,1.00
2022-10-06T17:09:14.216Z,1.15
2022-10-06T17:11:46.425Z,1.33
2022-10-06T17:14:15.743Z,1.33
2022-10-06T17:16:43.939Z,4.45
2022-10-06T17:19:12.225Z,2.95
2022-10-06T17:21:48.832Z,2.70
2022-10-06T17:24:20.903Z,2.40
2022-10-06T17:26:49.189Z,1.88
2022-10-06T17:29:21.458Z,1.85
2022-10-06T17:31:50.655Z,1.50
2022-10-06T17:34:21.406Z,1.10
2022-10-06T17:36:50.927Z,0.85
2022-10-06T17:39:20.878Z,1.40
2022-10-06T17:41:49.083Z,0.80
2022-10-06T17:44:24.141Z,0.60
2022-10-06T17:46:52.624Z,1.63
2022-10-06T17:49:20.935Z,1.75
2022-10-06T17:51:48.136Z,0.95
2022-10-06T17:54:21.933Z,1.25
2022-10-06T17:56:51.138Z,1.35
2022-10-06T17:59:23.769Z,1.20
2022-10-06T18:01:52.017Z,1.13
2022-10-06T18:04:21.698Z,1.67
2022-10-06T18:06:48.502Z,0.90
2022-10-06T18:09:18.589Z,1.08
2022-10-06T18:11:48.401Z,2.08
2022-10-06T18:14:18.630Z,4.22
2022-10-06T18:16:49.956Z,5.47
2022-10-06T18:19:20.341Z,5.05
2022-10-06T18:21:49.593Z,3.63
2022-10-06T18:24:18.892Z,4.28
2022-10-06T18:26:48.207Z,2.50
2022-10-06T18:29:20.516Z,2.80
2022-10-06T18:31:49.552Z,2.80
2022-10-06T18:37:02.517Z,2.63
2022-10-06T18:39:31.276Z,2.60
2022-10-06T18:42:02.296Z,2.30
2022-10-06T18:44:47.206Z,5.20
2022-10-06T18:47:32.214Z,4.80
2022-10-06T18:49:58.647Z,4.10
2022-10-06T18:52:25.030Z,4.63
2022-10-06T18:54:51.686Z,3.53
2022-10-06T18:57:18.475Z,6.45
2022-10-06T18:59:45.072Z,4.97
2022-10-06T19:02:11.838Z,4.50
2022-10-06T19:04:39.302Z,5.60
2022-10-06T19:07:05.982Z,3.83
2022-10-06T19:09:32.348Z,3.45
2022-10-06T19:11:58.878Z,2.92
2022-10-06T19:14:31.494Z,2.72
2022-10-06T19:17:09.020Z,2.88
2022-10-06T19:19:38.161Z,2.20
2022-10-06T19:22:06.420Z,2.22
2022-10-06T19:24:32.943Z,2.08
2022-10-06T19:26:59.810Z,1.70
2022-10-06T19:29:26.884Z,2.10
2022-10-06T19:31:59.926Z,2.17
2022-10-06T19:34:26.556Z,5.25
2022-10-06T19:36:58.201Z,2.70
2022-10-06T19:39:27.454Z,2.88
2022-10-06T19:42:15.517Z,1.83
2022-10-06T19:44:44.615Z,2.00
2022-10-06T19:47:14.672Z,2.22
2022-10-06T19:49:42.248Z,2.15
2022-10-06T19:52:10.763Z,2.67
2022-10-06T19:54:38.507Z,2.08
2022-10-06T19:57:08.407Z,1.75
2022-10-06T19:59:38.380Z,1.67
2022-10-06T20:02:08.411Z,1.25
2022-10-06T20:04:35.229Z,1.88
2022-10-06T20:07:01.909Z,1.95
2022-10-06T20:09:33.461Z,2.42
2022-10-06T20:12:01.487Z,2.88
2022-10-06T20:14:30.521Z,1.98
2022-10-06T20:16:57.388Z,10.02
2022-10-06T20:19:25.394Z,4.55
2022-10-06T20:21:53.139Z,3.83
2022-10-06T20:24:25.627Z,4.03
2022-10-06T20:26:53.352Z,6.88
2022-10-06T20:29:25.642Z,5.30
2022-10-06T20:31:55.098Z,3.63
2022-10-06T20:34:24.676Z,4.10
2022-10-06T20:36:56.007Z,4.30
2022-10-06T20:39:43.926Z,3.92
2022-10-06T20:42:15.335Z,4.57
2022-10-06T20:44:42.717Z,3.72
2022-10-06T20:47:10.544Z,4.57
2022-10-06T20:49:37.521Z,4.20
2022-10-06T20:52:04.721Z,3.42
2022-10-06T20:54:34.738Z,3.08
2022-10-06T20:57:03.837Z,3.00
2022-10-06T20:59:35.432Z,3.25
2022-10-06T21:02:03.073Z,2.70
2022-10-06T21:04:32.811Z,2.90
2022-10-06T21:07:05.640Z,3.88
2022-10-06T21:09:32.108Z,3.55
2022-10-06T21:11:58.575Z,3.53
2022-10-06T21:14:25.381Z,4.13
2022-10-06T21:16:52.397Z,3.50
2022-10-06T21:19:21.364Z,3.15
2022-10-06T21:21:53.248Z,3.13
2022-10-06T21:24:20.446Z,3.15
2022-10-06T21:26:47.607Z,2.70
2022-10-06T21:29:15.674Z,2.47
2022-10-06T21:31:43.321Z,3.55
2022-10-06T21:34:10.341Z,3.10
2022-10-06T21:36:37.069Z,2.85
2022-10-06T21:39:06.499Z,2.80
2022-10-06T21:41:38.508Z,3.28
2022-10-06T21:44:16.330Z,3.10
2022-10-06T21:46:54.197Z,3.38
2022-10-06T21:49:22.699Z,3.50
2022-10-06T21:51:52.407Z,2.53
2022-10-06T21:54:20.861Z,3.42
2022-10-06T21:56:52.373Z,3.28
2022-10-06T21:59:18.793Z,2.27
2022-10-06T22:01:46.820Z,2.72
2022-10-06T22:04:14.657Z,4.15
2022-10-06T22:06:42.348Z,3.53
2022-10-06T22:09:13.908Z,3.70
2022-10-06T22:11:40.928Z,5.78
2022-10-06T22:14:11.639Z,4.80
2022-10-06T22:16:38.978Z,5.25
2022-10-06T22:19:11.064Z,6.90
2022-10-06T22:21:40.082Z,4.82
2022-10-06T22:24:12.533Z,3.38
2022-10-06T22:26:40.780Z,2.88
2022-10-06T22:29:11.992Z,2.30
2022-10-06T22:31:40.573Z,2.60
2022-10-06T22:34:07.897Z,3.92
2022-10-06T22:36:37.144Z,2.20
2022-10-06T22:39:03.948Z,2.03
2022-10-06T22:41:30.596Z,2.60
2022-10-06T22:43:58.329Z,2.30
2022-10-06T22:46:34.325Z,2.17
2022-10-06T22:49:01.605Z,2.60
2022-10-06T22:51:30.843Z,2.40
2022-10-06T22:53:59.130Z,2.80
2022-10-06T22:56:30.455Z,2.15
2022-10-06T22:58:59.627Z,2.13
2022-10-06T23:01:27.510Z,2.30
2022-10-06T23:03:55.492Z,2.72
2022-10-06T23:06:24.938Z,1.80
2022-10-06T23:08:52.152Z,1.85
2022-10-06T23:11:22.971Z,1.50
2022-10-06T23:13:53.247Z,2.00
2022-10-06T23:16:20.389Z,1.67
2022-10-06T23:18:47.809Z,1.70
2022-10-06T23:21:23.804Z,1.83
2022-10-06T23:23:58.390Z,1.77
2022-10-06T23:26:29.320Z,1.60
2022-10-06T23:28:58.231Z,1.90
2022-10-06T23:31:28.037Z,1.63
2022-10-06T23:33:55.191Z,2.00
2022-10-06T23:36:21.713Z,2.50
2022-10-06T23:38:50.494Z,1.27
2022-10-06T23:41:17.473Z,2.00
2022-10-06T23:43:44.072Z,2.25
2022-10-06T23:46:10.964Z,2.42
2022-10-06T23:48:44.649Z,1.70
2022-10-06T23:51:15.255Z,2.20
2022-10-06T23:53:43.117Z,2.20
2022-10-06T23:56:12.984Z,2.58
2022-10-06T23:58:39.527Z,2.30
